sensor_id;sensor_type;location;lat;lon;timestamp;pressure;altitude;pressure_sealevel;temperature;humidity
47530;BME280;33272;51.922;7.730;2023-02-17T00:01:33;144934.25;;;9.82;100.00
47530;BME280;33272;51.922;7.730;2023-02-17T00:04:01;144945.63;;;9.86;100.00
47530;BME280;33272;51.922;7.730;2023-02-17T00:06:30;144955.78;;;9.90;100.00
47530;BME280;33272;51.922;7.730;2023-02-17T00:08:57;144944.38;;;9.86;100.00
47530;BME280;33272;51.922;7.730;2023-02-17T00:11:25;144935.50;;;9.82;100.00
47530;BME280;33272;51.922;7.730;2023-02-17T00:13:53;144940.59;;;9.84;100.00
47530;BME280;33272;51.922;7.730;2023-02-17T00:16:22;144934.25;;;9.82;100.00
47530;BME280;33272;51.922;7.730;2023-02-17T00:18:53;144933.00;;;9.81;100.00
47530;BME280;33272;51.922;7.730;2023-02-17T00:21:22;144934.25;;;9.82;100.00
47530;BME280;33272;51.922;7.730;2023-02-17T00:23:52;144934.25;;;9.82;100.00
47530;BME280;33272;51.922;7.730;2023-02-17T00:26:20;144950.72;;;9.88;100.00
47530;BME280;33272;51.922;7.730;2023-02-17T00:28:47;144927.91;;;9.79;100.00
47530;BME280;33272;51.922;7.730;2023-02-17T00:31:18;144939.34;;;9.84;100.00
47530;BME280;33272;51.922;7.730;2023-02-17T00:33:45;144946.94;;;9.87;100.00
47530;BME280;33272;51.922;7.730;2023-02-17T00:36:15;144968.44;;;9.95;100.00
47530;BME280;33272;51.922;7.730;2023-02-17T00:38:43;144959.56;;;9.92;100.00
47530;BME280;33272;51.922;7.730;2023-02-17T00:41:12;144973.53;;;9.97;100.00
47530;BME280;33272;51.922;7.730;2023-02-17T00:43:39;144964.66;;;9.94;100.00
47530;BME280;33272;51.922;7.730;2023-02-17T00:46:06;144955.78;;;9.90;100.00
47530;BME280;33272;51.922;7.730;2023-02-17T00:48:33;144978.59;;;10.00;100.00
47530;BME280;33272;51.922;7.730;2023-02-17T00:51:00;144965.91;;;9.94;100.00
47530;BME280;33272;51.922;7.730;2023-02-17T00:53:27;144967.19;;;9.95;100.00
47530;BME280;33272;51.922;7.730;2023-02-17T00:55:55;144955.78;;;9.90;100.00
47530;BME280;33272;51.922;7.730;2023-02-17T00:58:25;144981.13;;;10.01;100.00
47530;BME280;33272;51.922;7.730;2023-02-17T01:00:53;144957.06;;;9.91;100.00
47530;BME280;33272;51.922;7.730;2023-02-17T01:03:20;144963.41;;;9.93;100.00
47530;BME280;33272;51.922;7.730;2023-02-17T01:05:48;144983.63;;;10.02;100.00
47530;BME280;33272;51.922;7.730;2023-02-17T01:08:16;144995.06;;;10.06;100.00
47530;BME280;33272;51.922;7.730;2023-02-17T01:10:45;144993.81;;;10.06;100.00
47530;BME280;33272;51.922;7.730;2023-02-17T01:13:14;144984.91;;;10.02;100.00
47530;BME280;33272;51.922;7.730;2023-02-17T01:15:46;144993.81;;;10.06;100.00
47530;BME280;33272;51.922;7.730;2023-02-17T01:18:18;144988.72;;;10.04;100.00
47530;BME280;33272;51.922;7.730;2023-02-17T01:20:45;144988.72;;;10.04;100.00
47530;BME280;33272;51.922;7.730;2023-02-17T01:23:13;144993.81;;;10.06;100.00
47530;BME280;33272;51.922;7.730;2023-02-17T01:25:43;144983.63;;;10.02;100.00
47530;BME280;33272;51.922;7.730;2023-02-17T01:28:14;144996.31;;;10.07;100.00
47530;BME280;33272;51.922;7.730;2023-02-17T01:30:43;145008.97;;;10.12;100.00
47530;BME280;33272;51.922;7.730;2023-02-17T01:33:10;145002.66;;;10.09;100.00
47530;BME280;33272;51.922;7.730;2023-02-17T01:35:37;145010.28;;;10.12;100.00
47530;BME280;33272;51.922;7.730;2023-02-17T01:38:04;145017.88;;;10.15;100.00
47530;BME280;33272;51.922;7.730;2023-02-17T01:40:32;145024.19;;;10.18;100.00
47530;BME280;33272;51.922;7.730;2023-02-17T01:42:59;145026.75;;;10.19;100.00
47530;BME280;33272;51.922;7.730;2023-02-17T01:45:39;145024.19;;;10.18;100.00
47530;BME280;33272;51.922;7.730;2023-02-17T01:48:11;145022.91;;;10.17;100.00
47530;BME280;33272;51.922;7.730;2023-02-17T01:50:44;145019.13;;;10.16;100.00
47530;BME280;33272;51.922;7.730;2023-02-17T01:53:15;145024.19;;;10.18;100.00
47530;BME280;33272;51.922;7.730;2023-02-17T01:55:44;145007.72;;;10.11;100.00
47530;BME280;33272;51.922;7.730;2023-02-17T01:58:15;145001.41;;;10.09;100.00
47530;BME280;33272;51.922;7.730;2023-02-17T02:00:46;145014.06;;;10.14;100.00
47530;BME280;33272;51.922;7.730;2023-02-17T02:03:15;145029.25;;;10.20;100.00
47530;BME280;33272;51.922;7.730;2023-02-17T02:05:42;145036.84;;;10.23;100.00
47530;BME280;33272;51.922;7.730;2023-02-17T02:08:10;145035.59;;;10.23;100.00
47530;BME280;33272;51.922;7.730;2023-02-17T02:10:38;145043.19;;;10.26;100.00
47530;BME280;33272;51.922;7.730;2023-02-17T02:13:06;145057.19;;;10.31;100.00
47530;BME280;33272;51.922;7.730;2023-02-17T02:15:39;145058.47;;;10.32;100.00
47530;BME280;33272;51.922;7.730;2023-02-17T02:18:36;145052.13;;;10.29;100.00
47530;BME280;33272;51.922;7.730;2023-02-17T02:24:36;145060.97;;;10.33;100.00
47530;BME280;33272;51.922;7.730;2023-02-17T02:27:41;145048.34;;;10.28;100.00
47530;BME280;33272;51.922;7.730;2023-02-17T02:30:55;145057.19;;;10.31;100.00
47530;BME280;33272;51.922;7.730;2023-02-17T02:33:33;145030.50;;;10.20;100.00
47530;BME280;33272;51.922;7.730;2023-02-17T02:36:09;145036.84;;;10.23;100.00
47530;BME280;33272;51.922;7.730;2023-02-17T02:38:41;145055.91;;;10.31;100.00
47530;BME280;33272;51.922;7.730;2023-02-17T02:41:15;145076.19;;;10.39;100.00
47530;BME280;33272;51.922;7.730;2023-02-17T02:43:43;145090.13;;;10.44;100.00
47530;BME280;33272;51.922;7.730;2023-02-17T02:46:10;145093.91;;;10.46;100.00
47530;BME280;33272;51.922;7.730;2023-02-17T02:48:39;145095.22;;;10.47;100.00
47530;BME280;33272;51.922;7.730;2023-02-17T02:51:23;145087.63;;;10.43;100.00
47530;BME280;33272;51.922;7.730;2023-02-17T02:57:24;145091.41;;;10.45;100.00
47530;BME280;33272;51.922;7.730;2023-02-17T03:00:08;145095.22;;;10.47;100.00
47530;BME280;33272;51.922;7.730;2023-02-17T03:02:44;145095.22;;;10.47;100.00
47530;BME280;33272;51.922;7.730;2023-02-17T03:05:23;145092.66;;;10.46;100.00
47530;BME280;33272;51.922;7.730;2023-02-17T03:07:57;145097.75;;;10.48;100.00
47530;BME280;33272;51.922;7.730;2023-02-17T03:10:25;145112.94;;;10.54;100.00
47530;BME280;33272;51.922;7.730;2023-02-17T03:12:54;145112.94;;;10.54;100.00
47530;BME280;33272;51.922;7.730;2023-02-17T03:15:26;145092.66;;;10.46;100.00
47530;BME280;33272;51.922;7.730;2023-02-17T03:17:56;145062.25;;;10.33;100.00
47530;BME280;33272;51.922;7.730;2023-02-17T03:20:25;145102.78;;;10.50;100.00
47530;BME280;33272;51.922;7.730;2023-02-17T03:22:53;145118.00;;;10.56;100.00
47530;BME280;33272;51.922;7.730;2023-02-17T03:25:20;145147.16;;;10.67;100.00
47530;BME280;33272;51.922;7.730;2023-02-17T03:27:48;145131.94;;;10.61;100.00
47530;BME280;33272;51.922;7.730;2023-02-17T03:30:15;145138.28;;;10.64;100.00
47530;BME280;33272;51.922;7.730;2023-02-17T03:32:42;145135.78;;;10.63;100.00
47530;BME280;33272;51.922;7.730;2023-02-17T03:35:09;145140.81;;;10.65;100.00
47530;BME280;33272;51.922;7.730;2023-02-17T03:37:37;145145.91;;;10.67;100.00
47530;BME280;33272;51.922;7.730;2023-02-17T03:40:07;145159.84;;;10.73;100.00
47530;BME280;33272;51.922;7.730;2023-02-17T03:42:35;145121.81;;;10.57;100.00
47530;BME280;33272;51.922;7.730;2023-02-17T03:45:03;145147.16;;;10.67;100.00
47530;BME280;33272;51.922;7.730;2023-02-17T03:47:31;145147.16;;;10.67;100.00
47530;BME280;33272;51.922;7.730;2023-02-17T03:49:58;145149.69;;;10.68;100.00
47530;BME280;33272;51.922;7.730;2023-02-17T03:52:25;145142.06;;;10.65;100.00
47530;BME280;33272;51.922;7.730;2023-02-17T03:54:53;145128.16;;;10.60;100.00
47530;BME280;33272;51.922;7.730;2023-02-17T03:57:20;145126.91;;;10.59;100.00
47530;BME280;33272;51.922;7.730;2023-02-17T03:59:47;145137.03;;;10.63;100.00
47530;BME280;33272;51.922;7.730;2023-02-17T04:02:14;145139.56;;;10.64;100.00
47530;BME280;33272;51.922;7.730;2023-02-17T04:04:41;145161.13;;;10.73;100.00
47530;BME280;33272;51.922;7.730;2023-02-17T04:07:08;145158.59;;;10.72;100.00
47530;BME280;33272;51.922;7.730;2023-02-17T04:09:35;145162.38;;;10.74;100.00
47530;BME280;33272;51.922;7.730;2023-02-17T04:12:04;145167.47;;;10.76;100.00
47530;BME280;33272;51.922;7.730;2023-02-17T04:14:31;145144.63;;;10.66;100.00
47530;BME280;33272;51.922;7.730;2023-02-17T04:16:58;145173.81;;;10.78;100.00
47530;BME280;33272;51.922;7.730;2023-02-17T04:19:25;145164.88;;;10.75;100.00
47530;BME280;33272;51.922;7.730;2023-02-17T04:21:52;145178.84;;;10.80;100.00
47530;BME280;33272;51.922;7.730;2023-02-17T04:24:19;145178.84;;;10.80;100.00
47530;BME280;33272;51.922;7.730;2023-02-17T04:26:46;145171.25;;;10.77;100.00
47530;BME280;33272;51.922;7.730;2023-02-17T04:29:14;145191.53;;;10.85;100.00
47530;BME280;33272;51.922;7.730;2023-02-17T04:31:41;145176.31;;;10.79;100.00
47530;BME280;33272;51.922;7.730;2023-02-17T04:34:08;145186.47;;;10.83;100.00
47530;BME280;33272;51.922;7.730;2023-02-17T04:36:35;145183.94;;;10.82;100.00
47530;BME280;33272;51.922;7.730;2023-02-17T04:39:02;145171.25;;;10.77;100.00
47530;BME280;33272;51.922;7.730;2023-02-17T04:41:29;145181.41;;;10.81;100.00
47530;BME280;33272;51.922;7.730;2023-02-17T04:43:56;145168.72;;;10.76;100.00
47530;BME280;33272;51.922;7.730;2023-02-17T04:46:24;145169.97;;;10.77;100.00
47530;BME280;33272;51.922;7.730;2023-02-17T04:48:51;145163.63;;;10.74;100.00
47530;BME280;33272;51.922;7.730;2023-02-17T04:51:18;145199.16;;;10.88;100.00
47530;BME280;33272;51.922;7.730;2023-02-17T04:53:45;145190.28;;;10.85;100.00
47530;BME280;33272;51.922;7.730;2023-02-17T04:56:13;145183.94;;;10.82;100.00
47530;BME280;33272;51.922;7.730;2023-02-17T04:58:40;145191.53;;;10.85;100.00
47530;BME280;33272;51.922;7.730;2023-02-17T05:01:06;145197.88;;;10.88;100.00
47530;BME280;33272;51.922;7.730;2023-02-17T05:03:35;145209.28;;;10.93;100.00
47530;BME280;33272;51.922;7.730;2023-02-17T05:06:03;145186.47;;;10.83;100.00
47530;BME280;33272;51.922;7.730;2023-02-17T05:08:30;145167.47;;;10.76;100.00
47530;BME280;33272;51.922;7.730;2023-02-17T05:10:57;145156.03;;;10.71;100.00
47530;BME280;33272;51.922;7.730;2023-02-17T05:13:23;145166.19;;;10.75;100.00
47530;BME280;33272;51.922;7.730;2023-02-17T05:15:52;145176.31;;;10.79;100.00
47530;BME280;33272;51.922;7.730;2023-02-17T05:18:19;145169.97;;;10.77;100.00
47530;BME280;33272;51.922;7.730;2023-02-17T05:20:47;145199.16;;;10.88;100.00
47530;BME280;33272;51.922;7.730;2023-02-17T05:23:14;145201.66;;;10.89;100.00
47530;BME280;33272;51.922;7.730;2023-02-17T05:25:41;145201.66;;;10.89;100.00
47530;BME280;33272;51.922;7.730;2023-02-17T05:28:08;145177.59;;;10.80;100.00
47530;BME280;33272;51.922;7.730;2023-02-17T05:30:35;145191.53;;;10.85;100.00
47530;BME280;33272;51.922;7.730;2023-02-17T05:33:02;145199.16;;;10.88;100.00
47530;BME280;33272;51.922;7.730;2023-02-17T05:35:29;145194.06;;;10.86;100.00
47530;BME280;33272;51.922;7.730;2023-02-17T05:37:57;145187.72;;;10.84;100.00
47530;BME280;33272;51.922;7.730;2023-02-17T05:40:24;145196.56;;;10.87;100.00
47530;BME280;33272;51.922;7.730;2023-02-17T05:42:51;145180.09;;;10.81;100.00
47530;BME280;33272;51.922;7.730;2023-02-17T05:45:18;145190.28;;;10.85;100.00
47530;BME280;33272;51.922;7.730;2023-02-17T05:47:45;145204.19;;;10.90;100.00
47530;BME280;33272;51.922;7.730;2023-02-17T05:50:12;145219.41;;;10.97;100.00
47530;BME280;33272;51.922;7.730;2023-02-17T05:52:39;145205.50;;;10.91;100.00
47530;BME280;33272;51.922;7.730;2023-02-17T05:55:08;145201.66;;;10.89;100.00
47530;BME280;33272;51.922;7.730;2023-02-17T05:57:35;145200.41;;;10.89;100.00
47530;BME280;33272;51.922;7.730;2023-02-17T06:00:04;145209.28;;;10.93;100.00
47530;BME280;33272;51.922;7.730;2023-02-17T06:02:31;145180.09;;;10.81;100.00
47530;BME280;33272;51.922;7.730;2023-02-17T06:04:58;145196.56;;;10.87;100.00
47530;BME280;33272;51.922;7.730;2023-02-17T06:07:25;145204.19;;;10.90;100.00
47530;BME280;33272;51.922;7.730;2023-02-17T06:09:52;145195.31;;;10.87;100.00
47530;BME280;33272;51.922;7.730;2023-02-17T06:12:20;145209.28;;;10.93;100.00
47530;BME280;33272;51.922;7.730;2023-02-17T06:14:47;145167.47;;;10.76;100.00
47530;BME280;33272;51.922;7.730;2023-02-17T06:17:14;145196.56;;;10.87;100.00
47530;BME280;33272;51.922;7.730;2023-02-17T06:19:41;145210.53;;;10.93;100.00
47530;BME280;33272;51.922;7.730;2023-02-17T06:22:08;145225.75;;;10.99;100.00
47530;BME280;33272;51.922;7.730;2023-02-17T06:24:35;145233.38;;;11.02;100.00
47530;BME280;33272;51.922;7.730;2023-02-17T06:27:02;145228.31;;;11.00;100.00
47530;BME280;33272;51.922;7.730;2023-02-17T06:29:31;145248.59;;;11.08;100.00
47530;BME280;33272;51.922;7.730;2023-02-17T06:31:58;145242.22;;;11.06;100.00
47530;BME280;33272;51.922;7.730;2023-02-17T06:34:25;145242.22;;;11.06;100.00
47530;BME280;33272;51.922;7.730;2023-02-17T06:36:52;145196.56;;;10.87;100.00
47530;BME280;33272;51.922;7.730;2023-02-17T06:39:19;145204.19;;;10.90;100.00
47530;BME280;33272;51.922;7.730;2023-02-17T06:41:46;145205.50;;;10.91;100.00
47530;BME280;33272;51.922;7.730;2023-02-17T06:44:13;145218.16;;;10.96;100.00
47530;BME280;33272;51.922;7.730;2023-02-17T06:46:41;145246.06;;;11.07;100.00
47530;BME280;33272;51.922;7.730;2023-02-17T06:49:10;145225.75;;;10.99;100.00
47530;BME280;33272;51.922;7.730;2023-02-17T06:51:37;145242.22;;;11.06;100.00
47530;BME280;33272;51.922;7.730;2023-02-17T06:54:05;145260.03;;;11.13;100.00
47530;BME280;33272;51.922;7.730;2023-02-17T06:56:32;145243.50;;;11.06;100.00
47530;BME280;33272;51.922;7.730;2023-02-17T06:59:00;145232.09;;;11.02;100.00
47530;BME280;33272;51.922;7.730;2023-02-17T07:01:27;145249.84;;;11.09;100.00
47530;BME280;33272;51.922;7.730;2023-02-17T07:03:56;145237.19;;;11.04;100.00
47530;BME280;33272;51.922;7.730;2023-02-17T07:06:25;145233.38;;;11.02;100.00
47530;BME280;33272;51.922;7.730;2023-02-17T07:08:53;145211.78;;;10.94;100.00
47530;BME280;33272;51.922;7.730;2023-02-17T07:11:22;145237.19;;;11.04;100.00
47530;BME280;33272;51.922;7.730;2023-02-17T07:13:49;145252.41;;;11.10;100.00
47530;BME280;33272;51.922;7.730;2023-02-17T07:16:16;145251.09;;;11.09;100.00
47530;BME280;33272;51.922;7.730;2023-02-17T07:18:44;145239.72;;;11.05;100.00
47530;BME280;33272;51.922;7.730;2023-02-17T07:21:12;145228.31;;;11.00;100.00
47530;BME280;33272;51.922;7.730;2023-02-17T07:23:39;145192.81;;;10.86;100.00
47530;BME280;33272;51.922;7.730;2023-02-17T07:26:11;145202.94;;;10.90;100.00
47530;BME280;33272;51.922;7.730;2023-02-17T07:28:39;145194.06;;;10.86;100.00
47530;BME280;33272;51.922;7.730;2023-02-17T07:31:07;145156.03;;;10.71;100.00
47530;BME280;33272;51.922;7.730;2023-02-17T07:33:35;145125.59;;;10.59;100.00
47530;BME280;33272;51.922;7.730;2023-02-17T07:36:05;145158.59;;;10.72;100.00
47530;BME280;33272;51.922;7.730;2023-02-17T07:38:34;145175.06;;;10.79;100.00
47530;BME280;33272;51.922;7.730;2023-02-17T07:41:05;145157.28;;;10.72;100.00
47530;BME280;33272;51.922;7.730;2023-02-17T07:43:33;145185.19;;;10.83;100.00
47530;BME280;33272;51.922;7.730;2023-02-17T07:46:00;145204.19;;;10.90;100.00
47530;BME280;33272;51.922;7.730;2023-02-17T07:48:27;145183.94;;;10.82;100.00
47530;BME280;33272;51.922;7.730;2023-02-17T07:50:54;145169.97;;;10.77;100.00
47530;BME280;33272;51.922;7.730;2023-02-17T07:53:21;145200.41;;;10.89;100.00
47530;BME280;33272;51.922;7.730;2023-02-17T07:55:50;145197.88;;;10.88;100.00
47530;BME280;33272;51.922;7.730;2023-02-17T07:58:17;145191.53;;;10.85;100.00
47530;BME280;33272;51.922;7.730;2023-02-17T08:00:44;145213.09;;;10.94;100.00
47530;BME280;33272;51.922;7.730;2023-02-17T08:03:11;145187.72;;;10.84;100.00
47530;BME280;33272;51.922;7.730;2023-02-17T08:05:39;145156.03;;;10.71;100.00
47530;BME280;33272;51.922;7.730;2023-02-17T08:08:06;145169.97;;;10.77;100.00
47530;BME280;33272;51.922;7.730;2023-02-17T08:10:53;145201.66;;;10.89;100.00
47530;BME280;33272;51.922;7.730;2023-02-17T08:13:37;145206.75;;;10.92;100.00
47530;BME280;33272;51.922;7.730;2023-02-17T08:16:04;145257.44;;;11.12;100.00
47530;BME280;33272;51.922;7.730;2023-02-17T08:18:31;145229.59;;;11.01;100.00
47530;BME280;33272;51.922;7.730;2023-02-17T08:20:59;145233.38;;;11.02;100.00
47530;BME280;33272;51.922;7.730;2023-02-17T08:23:26;145192.81;;;10.86;100.00
47530;BME280;33272;51.922;7.730;2023-02-17T08:25:57;145199.16;;;10.88;100.00
47530;BME280;33272;51.922;7.730;2023-02-17T08:28:24;145237.19;;;11.04;100.00
47530;BME280;33272;51.922;7.730;2023-02-17T08:30:51;145256.19;;;11.11;100.00
47530;BME280;33272;51.922;7.730;2023-02-17T08:33:18;145246.06;;;11.07;100.00
47530;BME280;33272;51.922;7.730;2023-02-17T08:35:46;145234.63;;;11.03;100.00
47530;BME280;33272;51.922;7.730;2023-02-17T08:38:13;145244.81;;;11.07;100.00
47530;BME280;33272;51.922;7.730;2023-02-17T08:40:40;145262.53;;;11.14;100.00
47530;BME280;33272;51.922;7.730;2023-02-17T08:43:08;145242.22;;;11.06;100.00
47530;BME280;33272;51.922;7.730;2023-02-17T08:45:36;145266.31;;;11.16;100.00
47530;BME280;33272;51.922;7.730;2023-02-17T08:48:04;145268.88;;;11.17;100.00
47530;BME280;33272;51.922;7.730;2023-02-17T08:50:32;145298.03;;;11.28;100.00
47530;BME280;33272;51.922;7.730;2023-02-17T08:52:59;145328.47;;;11.41;100.00
47530;BME280;33272;51.922;7.730;2023-02-17T08:55:26;145290.41;;;11.25;100.00
47530;BME280;33272;51.922;7.730;2023-02-17T08:57:53;145266.31;;;11.16;100.00
47530;BME280;33272;51.922;7.730;2023-02-17T09:00:21;145298.03;;;11.28;100.00
47530;BME280;33272;51.922;7.730;2023-02-17T09:02:49;145266.31;;;11.16;100.00
47530;BME280;33272;51.922;7.730;2023-02-17T09:05:16;145298.03;;;11.28;100.00
47530;BME280;33272;51.922;7.730;2023-02-17T09:07:43;145309.47;;;11.33;100.00
47530;BME280;33272;51.922;7.730;2023-02-17T09:10:12;145338.63;;;11.45;100.00
47530;BME280;33272;51.922;7.730;2023-02-17T09:12:39;145323.41;;;11.39;100.00
47530;BME280;33272;51.922;7.730;2023-02-17T09:15:07;145280.28;;;11.21;100.00
47530;BME280;33272;51.922;7.730;2023-02-17T09:17:39;145308.19;;;11.32;100.00
47530;BME280;33272;51.922;7.730;2023-02-17T09:20:07;145317.06;;;11.36;100.00
47530;BME280;33272;51.922;7.730;2023-02-17T09:22:34;145317.06;;;11.36;100.00
47530;BME280;33272;51.922;7.730;2023-02-17T09:25:02;145315.81;;;11.35;100.00
47530;BME280;33272;51.922;7.730;2023-02-17T09:27:29;145296.75;;;11.28;100.00
47530;BME280;33272;51.922;7.730;2023-02-17T09:29:56;145346.25;;;11.48;100.00
47530;BME280;33272;51.922;7.730;2023-02-17T09:32:23;145356.38;;;11.52;100.00
47530;BME280;33272;51.922;7.730;2023-02-17T09:34:52;145379.22;;;11.61;100.00
47530;BME280;33272;51.922;7.730;2023-02-17T09:37:20;145396.97;;;11.68;100.00
47530;BME280;33272;51.922;7.730;2023-02-17T09:39:48;145413.47;;;11.75;100.00
47530;BME280;33272;51.922;7.730;2023-02-17T09:42:18;145403.31;;;11.71;100.00
47530;BME280;33272;51.922;7.730;2023-02-17T09:44:49;145431.22;;;11.82;100.00
47530;BME280;33272;51.922;7.730;2023-02-17T09:47:21;145433.78;;;11.83;100.00
47530;BME280;33272;51.922;7.730;2023-02-17T09:49:54;145450.31;;;11.90;100.00
47530;BME280;33272;51.922;7.730;2023-02-17T09:52:27;145474.41;;;11.99;100.00
47530;BME280;33272;51.922;7.730;2023-02-17T09:55:03;145465.53;;;11.96;100.00
47530;BME280;33272;51.922;7.730;2023-02-17T09:57:36;145440.19;;;11.86;100.00
47530;BME280;33272;51.922;7.730;2023-02-17T10:00:10;145469.31;;;11.97;100.00
47530;BME280;33272;51.922;7.730;2023-02-17T10:02:44;145480.78;;;12.02;100.00
47530;BME280;33272;51.922;7.730;2023-02-17T10:05:18;145499.78;;;12.10;100.00
47530;BME280;33272;51.922;7.730;2023-02-17T10:07:52;145525.16;;;12.20;100.00
47530;BME280;33272;51.922;7.730;2023-02-17T10:10:25;145508.66;;;12.13;100.00
47530;BME280;33272;51.922;7.730;2023-02-17T10:12:57;145471.91;;;11.98;100.00
47530;BME280;33272;51.922;7.730;2023-02-17T10:15:30;145525.16;;;12.20;100.00
47530;BME280;33272;51.922;7.730;2023-02-17T10:18:07;145499.78;;;12.10;100.00
47530;BME280;33272;51.922;7.730;2023-02-17T10:20:41;145545.47;;;12.28;100.00
47530;BME280;33272;51.922;7.730;2023-02-17T10:23:15;145513.75;;;12.15;100.00
47530;BME280;33272;51.922;7.730;2023-02-17T10:26:07;145508.66;;;12.13;100.00
47530;BME280;33272;51.922;7.730;2023-02-17T10:28:50;145548.00;;;12.29;100.00
47530;BME280;33272;51.922;7.730;2023-02-17T10:31:30;145546.75;;;12.28;100.00
47530;BME280;33272;51.922;7.730;2023-02-17T10:34:02;145616.56;;;12.57;100.00
47530;BME280;33272;51.922;7.730;2023-02-17T10:36:42;145622.91;;;12.59;100.00
47530;BME280;33272;51.922;7.730;2023-02-17T10:39:29;145597.53;;;12.49;100.00
47530;BME280;33272;51.922;7.730;2023-02-17T10:42:01;145567.06;;;12.37;100.00
47530;BME280;33272;51.922;7.730;2023-02-17T10:44:30;145603.91;;;12.51;100.00
47530;BME280;33272;51.922;7.730;2023-02-17T10:46:59;145664.81;;;12.76;100.00
47530;BME280;33272;51.922;7.730;2023-02-17T10:49:30;145615.31;;;12.56;100.00
47530;BME280;33272;51.922;7.730;2023-02-17T10:52:02;145607.69;;;12.53;100.00
47530;BME280;33272;51.922;7.730;2023-02-17T10:54:39;145682.63;;;12.83;100.00
47530;BME280;33272;51.922;7.730;2023-02-17T10:57:11;145685.13;;;12.84;100.00
47530;BME280;33272;51.922;7.730;2023-02-17T10:59:42;145691.50;;;12.87;100.00
47530;BME280;33272;51.922;7.730;2023-02-17T11:02:19;145749.88;;;13.10;100.00
47530;BME280;33272;51.922;7.730;2023-02-17T11:04:50;145694.03;;;12.88;100.00
47530;BME280;33272;51.922;7.730;2023-02-17T11:07:31;145699.13;;;12.90;100.00
47530;BME280;33272;51.922;7.730;2023-02-17T11:10:00;145725.75;;;13.01;100.00
47530;BME280;33272;51.922;7.730;2023-02-17T11:12:33;145822.31;;;13.39;100.00
47530;BME280;33272;51.922;7.730;2023-02-17T11:15:15;145831.25;;;13.43;100.00
47530;BME280;33272;51.922;7.730;2023-02-17T11:17:44;145874.44;;;13.60;100.00
47530;BME280;33272;51.922;7.730;2023-02-17T11:20:33;145868.06;;;13.58;100.00
47530;BME280;33272;51.922;7.730;2023-02-17T11:23:15;145941.81;;;13.87;100.00
47530;BME280;33272;51.922;7.730;2023-02-17T11:26:08;145866.81;;;13.57;100.00
47530;BME280;33272;51.922;7.730;2023-02-17T11:28:36;145871.91;;;13.59;100.00
47530;BME280;33272;51.922;7.730;2023-02-17T11:31:04;145890.94;;;13.67;100.00
47530;BME280;33272;51.922;7.730;2023-02-17T11:33:36;145840.16;;;13.47;100.00
47530;BME280;33272;51.922;7.730;2023-02-17T11:36:06;145826.16;;;13.41;100.00
47530;BME280;33272;51.922;7.730;2023-02-17T11:38:44;145857.94;;;13.54;100.00
47530;BME280;33272;51.922;7.730;2023-02-17T11:41:12;145809.66;;;13.34;100.00
47530;BME280;33272;51.922;7.730;2023-02-17T11:43:51;145842.69;;;13.48;100.00
47530;BME280;33272;51.922;7.730;2023-02-17T11:46:32;145882.06;;;13.63;100.00
47530;BME280;33272;51.922;7.730;2023-02-17T11:49:33;145826.16;;;13.41;100.00
47530;BME280;33272;51.922;7.730;2023-02-17T11:52:16;145871.91;;;13.59;100.00
47530;BME280;33272;51.922;7.730;2023-02-17T11:55:01;145930.34;;;13.83;100.00
47530;BME280;33272;51.922;7.730;2023-02-17T11:57:38;145926.56;;;13.81;100.00
47530;BME280;33272;51.922;7.730;2023-02-17T12:00:17;145991.34;;;14.07;100.00
47530;BME280;33272;51.922;7.730;2023-02-17T12:03:03;145940.50;;;13.87;100.00
47530;BME280;33272;51.922;7.730;2023-02-17T12:05:48;145957.06;;;13.94;100.00
47530;BME280;33272;51.922;7.730;2023-02-17T12:08:21;145902.41;;;13.72;100.00
47530;BME280;33272;51.922;7.730;2023-02-17T12:11:03;145818.53;;;13.38;100.00
47530;BME280;33272;51.922;7.730;2023-02-17T12:13:46;145831.25;;;13.43;100.00
47530;BME280;33272;51.922;7.730;2023-02-17T12:16:43;145800.78;;;13.31;100.00
47530;BME280;33272;51.922;7.730;2023-02-17T12:19:28;145786.78;;;13.25;100.00
47530;BME280;33272;51.922;7.730;2023-02-17T12:22:09;145804.56;;;13.32;100.00
47530;BME280;33272;51.922;7.730;2023-02-17T12:25:07;145871.91;;;13.59;100.00
47530;BME280;33272;51.922;7.730;2023-02-17T12:27:55;145821.06;;;13.39;100.00
47530;BME280;33272;51.922;7.730;2023-02-17T12:30:36;145856.66;;;13.53;100.00
47530;BME280;33272;51.922;7.730;2023-02-17T12:33:23;145856.66;;;13.53;100.00
47530;BME280;33272;51.922;7.730;2023-02-17T12:35:55;145855.41;;;13.53;100.00
47530;BME280;33272;51.922;7.730;2023-02-17T12:38:27;145859.19;;;13.54;100.00
47530;BME280;33272;51.922;7.730;2023-02-17T12:41:02;145831.25;;;13.43;100.00
47530;BME280;33272;51.922;7.730;2023-02-17T12:43:39;145818.53;;;13.38;100.00
47530;BME280;33272;51.922;7.730;2023-02-17T12:46:11;145840.16;;;13.47;100.00
47530;BME280;33272;51.922;7.730;2023-02-17T12:48:45;145793.16;;;13.28;100.00
47530;BME280;33272;51.922;7.730;2023-02-17T12:51:18;145805.81;;;13.33;100.00
47530;BME280;33272;51.922;7.730;2023-02-17T12:53:50;145723.25;;;12.99;100.00
47530;BME280;33272;51.922;7.730;2023-02-17T12:56:48;145772.75;;;13.19;100.00
47530;BME280;33272;51.922;7.730;2023-02-17T12:59:25;145791.84;;;13.27;100.00
47530;BME280;33272;51.922;7.730;2023-02-17T13:02:00;145775.28;;;13.20;100.00
47530;BME280;33272;51.922;7.730;2023-02-17T13:04:29;145752.41;;;13.11;100.00
47530;BME280;33272;51.922;7.730;2023-02-17T13:10:27;145777.84;;;13.21;100.00